Rhodanus — PGBC — position and weather

sailwx.info

Track history (hours):
 
Tides and Currents Weather Stations Pressure Air Temp Water Temp Dewpoint Dewpoint Depression Visibility Wind Speed Wind Dir Waves Ship Positions

Rhodanus

Last reported at 2016-Dec-31 11:33 UTC. Time now 2017-Jan-18 18:18 UTC.
Position N 38°18' W 010°00'.
Warning: this ship's position is 18 days out of date.

Length 89 m; draft 4.3 m.

Type: Ship. MMSI: 245848000.

Date/timePositionNaut miles runAvg speedWind from/ knotsBaromVisibWave heightAir tempDewpointWater temp
2016-Dec-31 11:33N 38°18' W 010°00'19 9.5
2016-Dec-31 09:32N 38°37' W 010°06'9 9.3
2016-Dec-31 08:33N 38°46' W 010°07'10 9.7
2016-Dec-31 07:33N 38°55' W 010°07'1010.0
2016-Dec-31 06:33N 39°05' W 010°07'10 9.6
2016-Dec-31 05:28N 39°16' W 010°07'  
2016-Dec-28 20:33N 47°48' W 006°44'1010.5
2016-Dec-28 19:34N 47°57' W 006°36'30 9.9
2016-Dec-28 16:33N 48°23' W 006°15'8 8.4
2016-Dec-28 15:33N 48°30' W 006°09'16 7.8
2016-Dec-28 13:33N 48°44' W 005°58'10 8.2
2016-Dec-28 12:20N 48°53' W 005°51'111 9.2
2016-Dec-28 00:15N 49°49' W 003°25'710.2
2016-Dec-27 23:33N 49°53' W 003°15'1010.1
2016-Dec-27 22:33N 49°58' W 003°02'115 9.6
2016-Dec-27 10:32N 50°31' W 000°09'1010.0
2016-Dec-27 09:33N 50°34' E 000°06'5510.2
2016-Dec-27 04:09N 51°01' E 001°21'712.7
2016-Dec-27 03:33N 51°06' E 001°31'1111.5
2016-Dec-27 02:33N 51°16' E 001°40'1010.1
2016-Dec-27 01:33N 51°26' E 001°44'10 9.2
2016-Dec-27 00:27N 51°36' E 001°45'8 9.2
2016-Dec-26 23:34N 51°44' E 001°45'9 9.5
2016-Dec-26 22:33N 51°53' E 001°45'10 9.9
2016-Dec-26 21:33N 52°03' E 001°48'1010.5
2016-Dec-26 20:33N 52°13' E 001°52'3510.5
2016-Dec-26 17:12N 52°49' E 001°56'6 9.7
2016-Dec-26 16:33N 52°50' E 001°46'10 9.7
2016-Dec-26 15:33N 52°55' E 001°33'9 9.2
2016-Dec-26 14:33N 53°01' E 001°21'65 8.2
2016-Dec-26 06:33N 53°38' W 000°09'9 9.4
2016-Dec-26 05:33N 53°42' W 000°23'  
Track history (hours):
 
Tides and Currents Weather Stations Pressure Air Temp Water Temp Dewpoint Dewpoint Depression Visibility Wind Speed Wind Dir Waves Ship Positions

Rhodanus

Last reported at 2016-Dec-31 11:33 UTC. Time now 2017-Jan-18 18:18 UTC.
Position N 38°18' W 010°00'.
Warning: this ship's position is 18 days out of date.

Length 89 m; draft 4.3 m.

Type: Ship. MMSI: 245848000.

Date/timePositionNaut miles runAvg speedWind from/ knotsBaromVisibWave heightAir tempDewpointWater temp
2016-Dec-31 11:33N 38°18' W 010°00'19 9.5
2016-Dec-31 09:32N 38°37' W 010°06'9 9.3
2016-Dec-31 08:33N 38°46' W 010°07'10 9.7
2016-Dec-31 07:33N 38°55' W 010°07'1010.0
2016-Dec-31 06:33N 39°05' W 010°07'10 9.6
2016-Dec-31 05:28N 39°16' W 010°07'  
2016-Dec-28 20:33N 47°48' W 006°44'1010.5
2016-Dec-28 19:34N 47°57' W 006°36'30 9.9
2016-Dec-28 16:33N 48°23' W 006°15'8 8.4
2016-Dec-28 15:33N 48°30' W 006°09'16 7.8
2016-Dec-28 13:33N 48°44' W 005°58'10 8.2
2016-Dec-28 12:20N 48°53' W 005°51'111 9.2
2016-Dec-28 00:15N 49°49' W 003°25'710.2
2016-Dec-27 23:33N 49°53' W 003°15'1010.1
2016-Dec-27 22:33N 49°58' W 003°02'115 9.6
2016-Dec-27 10:32N 50°31' W 000°09'1010.0
2016-Dec-27 09:33N 50°34' E 000°06'5510.2
2016-Dec-27 04:09N 51°01' E 001°21'712.7
2016-Dec-27 03:33N 51°06' E 001°31'1111.5
2016-Dec-27 02:33N 51°16' E 001°40'1010.1
2016-Dec-27 01:33N 51°26' E 001°44'10 9.2
2016-Dec-27 00:27N 51°36' E 001°45'8 9.2
2016-Dec-26 23:34N 51°44' E 001°45'9 9.5
2016-Dec-26 22:33N 51°53' E 001°45'10 9.9
2016-Dec-26 21:33N 52°03' E 001°48'1010.5
2016-Dec-26 20:33N 52°13' E 001°52'3510.5
2016-Dec-26 17:12N 52°49' E 001°56'6 9.7
2016-Dec-26 16:33N 52°50' E 001°46'10 9.7
2016-Dec-26 15:33N 52°55' E 001°33'9 9.2
2016-Dec-26 14:33N 53°01' E 001°21'65 8.2
2016-Dec-26 06:33N 53°38' W 000°09'9 9.4
2016-Dec-26 05:33N 53°42' W 000°23'  

Dump ship's entire track history